sensor_id;sensor_type;location;lat;lon;timestamp;pressure;altitude;pressure_sealevel;temperature;humidity
63439;BME280;49567;48.958;8.294;2023-05-24T00:01:25;100723.69;;;18.29;46.53
63439;BME280;49567;48.958;8.294;2023-05-24T00:03:51;100721.00;;;18.24;46.21
63439;BME280;49567;48.958;8.294;2023-05-24T00:06:18;100721.50;;;18.26;46.54
63439;BME280;49567;48.958;8.294;2023-05-24T00:08:43;100723.97;;;18.27;46.43
63439;BME280;49567;48.958;8.294;2023-05-24T00:11:08;100719.59;;;18.26;46.50
63439;BME280;49567;48.958;8.294;2023-05-24T00:13:35;100718.50;;;18.27;46.58
63439;BME280;49567;48.958;8.294;2023-05-24T00:16:01;100722.03;;;18.28;46.40
63439;BME280;49567;48.958;8.294;2023-05-24T00:18:26;100719.59;;;18.26;46.36
63439;BME280;49567;48.958;8.294;2023-05-24T00:20:51;100710.59;;;18.21;46.26
63439;BME280;49567;48.958;8.294;2023-05-24T00:23:17;100708.97;;;18.20;46.63
63439;BME280;49567;48.958;8.294;2023-05-24T00:25:42;100696.66;;;18.17;46.66
63439;BME280;49567;48.958;8.294;2023-05-24T00:28:08;100696.69;;;18.12;46.94
63439;BME280;49567;48.958;8.294;2023-05-24T00:30:33;100700.06;;;18.04;46.96
63439;BME280;49567;48.958;8.294;2023-05-24T00:32:58;100704.75;;;17.98;46.93
63439;BME280;49567;48.958;8.294;2023-05-24T00:35:23;100706.16;;;17.96;46.78
63439;BME280;49567;48.958;8.294;2023-05-24T00:37:49;100702.66;;;17.90;46.92
63439;BME280;49567;48.958;8.294;2023-05-24T00:40:14;100707.31;;;17.90;46.71
63439;BME280;49567;48.958;8.294;2023-05-24T00:42:40;100700.25;;;17.79;46.82
63439;BME280;49567;48.958;8.294;2023-05-24T00:45:06;100703.59;;;17.76;47.04
63439;BME280;49567;48.958;8.294;2023-05-24T00:47:32;100696.75;;;17.73;47.29
63439;BME280;49567;48.958;8.294;2023-05-24T00:49:58;100708.28;;;17.70;47.53
63439;BME280;49567;48.958;8.294;2023-05-24T00:52:23;100691.59;;;17.67;47.77
63439;BME280;49567;48.958;8.294;2023-05-24T00:54:49;100695.97;;;17.68;48.04
63439;BME280;49567;48.958;8.294;2023-05-24T00:57:15;100689.94;;;17.66;48.32
63439;BME280;49567;48.958;8.294;2023-05-24T00:59:41;100695.97;;;17.68;48.25
63439;BME280;49567;48.958;8.294;2023-05-24T01:02:06;100692.94;;;17.69;48.37
63439;BME280;49567;48.958;8.294;2023-05-24T01:04:32;100690.78;;;17.66;48.48
63439;BME280;49567;48.958;8.294;2023-05-24T01:10:15;100695.44;;;17.66;48.45
63439;BME280;49567;48.958;8.294;2023-05-24T01:12:55;100691.06;;;17.65;48.57
63439;BME280;49567;48.958;8.294;2023-05-24T01:15:31;100690.53;;;17.62;48.69
63439;BME280;49567;48.958;8.294;2023-05-24T01:18:01;100692.44;;;17.62;48.69
63439;BME280;49567;48.958;8.294;2023-05-24T01:20:33;100693.84;;;17.59;48.69
63439;BME280;49567;48.958;8.294;2023-05-24T01:23:06;100693.31;;;17.57;48.80
63439;BME280;49567;48.958;8.294;2023-05-24T01:25:54;100693.03;;;17.54;49.13
63439;BME280;49567;48.958;8.294;2023-05-24T01:28:25;100686.47;;;17.50;49.03
63439;BME280;49567;48.958;8.294;2023-05-24T01:30:51;100685.72;;;17.44;49.32
63439;BME280;49567;48.958;8.294;2023-05-24T01:33:17;100692.81;;;17.45;49.62
63439;BME280;49567;48.958;8.294;2023-05-24T01:35:42;100692.84;;;17.40;49.45
63439;BME280;49567;48.958;8.294;2023-05-24T01:38:08;100708.47;;;17.40;49.60
63439;BME280;49567;48.958;8.294;2023-05-24T01:40:37;100703.88;;;17.35;49.49
63439;BME280;49567;48.958;8.294;2023-05-24T01:43:17;100699.44;;;17.39;49.48
63439;BME280;49567;48.958;8.294;2023-05-24T01:48:24;100705.47;;;17.36;49.82
63439;BME280;49567;48.958;8.294;2023-05-24T01:50:57;100702.47;;;17.33;49.95
63439;BME280;49567;48.958;8.294;2023-05-24T01:53:25;100704.44;;;17.27;49.91
63439;BME280;49567;48.958;8.294;2023-05-24T01:55:53;100705.56;;;17.21;50.11
63439;BME280;49567;48.958;8.294;2023-05-24T01:58:22;100701.97;;;17.26;50.12
63439;BME280;49567;48.958;8.294;2023-05-24T02:00:47;100708.84;;;17.23;50.04
63439;BME280;49567;48.958;8.294;2023-05-24T02:03:13;100703.09;;;17.25;50.30
63439;BME280;49567;48.958;8.294;2023-05-24T02:05:40;100715.97;;;17.24;49.92
63439;BME280;49567;48.958;8.294;2023-05-24T02:08:05;100718.41;;;17.26;49.91
63439;BME280;49567;48.958;8.294;2023-05-24T02:10:31;100725.00;;;17.25;49.79
63439;BME280;49567;48.958;8.294;2023-05-24T02:12:56;100722.53;;;17.23;49.86
63439;BME280;49567;48.958;8.294;2023-05-24T02:15:23;100729.13;;;17.22;49.85
63439;BME280;49567;48.958;8.294;2023-05-24T02:17:49;100726.91;;;17.24;49.84
63439;BME280;49567;48.958;8.294;2023-05-24T02:20:14;100724.72;;;17.26;49.65
63439;BME280;49567;48.958;8.294;2023-05-24T02:22:41;100721.97;;;17.26;49.45
63439;BME280;49567;48.958;8.294;2023-05-24T02:25:06;100721.72;;;17.23;49.52
63439;BME280;49567;48.958;8.294;2023-05-24T02:27:32;100721.75;;;17.18;49.56
63439;BME280;49567;48.958;8.294;2023-05-24T02:29:57;100725.31;;;17.18;49.48
63439;BME280;49567;48.958;8.294;2023-05-24T02:32:23;100722.03;;;17.16;49.67
63439;BME280;49567;48.958;8.294;2023-05-24T02:34:48;100721.47;;;17.19;49.46
63439;BME280;49567;48.958;8.294;2023-05-24T02:37:13;100723.72;;;17.12;49.12
63439;BME280;49567;48.958;8.294;2023-05-24T02:39:40;100722.06;;;17.06;49.03
63439;BME280;49567;48.958;8.294;2023-05-24T02:42:06;100719.38;;;17.01;49.01
63439;BME280;49567;48.958;8.294;2023-05-24T02:44:32;100725.66;;;17.01;49.00
63439;BME280;49567;48.958;8.294;2023-05-24T02:46:57;100721.53;;;17.04;48.88
63439;BME280;49567;48.958;8.294;2023-05-24T02:49:23;100723.47;;;17.03;48.82
63439;BME280;49567;48.958;8.294;2023-05-24T02:51:48;100725.94;;;17.00;48.62
63439;BME280;49567;48.958;8.294;2023-05-24T02:54:13;100725.41;;;16.98;48.61
63439;BME280;49567;48.958;8.294;2023-05-24T02:56:38;100724.84;;;16.96;48.79
63439;BME280;49567;48.958;8.294;2023-05-24T02:59:04;100729.50;;;17.00;48.44
63439;BME280;49567;48.958;8.294;2023-05-24T03:01:29;100721.06;;;16.87;48.73
63439;BME280;49567;48.958;8.294;2023-05-24T03:03:55;100730.94;;;16.88;48.48
63439;BME280;49567;48.958;8.294;2023-05-24T03:06:20;100715.59;;;16.87;48.34
63439;BME280;49567;48.958;8.294;2023-05-24T03:08:45;100720.81;;;16.88;48.47
63439;BME280;49567;48.958;8.294;2023-05-24T03:11:11;100723.53;;;16.88;48.31
63439;BME280;49567;48.958;8.294;2023-05-24T03:13:36;100720.25;;;16.86;48.56
63439;BME280;49567;48.958;8.294;2023-05-24T03:16:02;100714.25;;;16.84;48.42
63439;BME280;49567;48.958;8.294;2023-05-24T03:18:27;100719.72;;;16.84;48.17
63439;BME280;49567;48.958;8.294;2023-05-24T03:20:52;100713.19;;;16.75;48.38
63439;BME280;49567;48.958;8.294;2023-05-24T03:23:17;100711.53;;;16.74;48.56
63439;BME280;49567;48.958;8.294;2023-05-24T03:25:43;100719.50;;;16.76;48.57
63439;BME280;49567;48.958;8.294;2023-05-24T03:28:08;100712.63;;;16.78;48.52
63439;BME280;49567;48.958;8.294;2023-05-24T03:30:34;100711.81;;;16.78;48.47
63439;BME280;49567;48.958;8.294;2023-05-24T03:32:59;100710.16;;;16.77;48.57
63439;BME280;49567;48.958;8.294;2023-05-24T03:35:25;100704.16;;;16.75;48.49
63439;BME280;49567;48.958;8.294;2023-05-24T03:37:51;100705.81;;;16.71;48.59
63439;BME280;49567;48.958;8.294;2023-05-24T03:40:17;100704.16;;;16.70;48.33
63439;BME280;49567;48.958;8.294;2023-05-24T03:42:42;100711.03;;;16.57;48.55
63439;BME280;49567;48.958;8.294;2023-05-24T03:45:08;100705.56;;;16.57;48.70
63439;BME280;49567;48.958;8.294;2023-05-24T03:47:33;100706.69;;;16.56;48.66
63439;BME280;49567;48.958;8.294;2023-05-24T03:49:58;100706.41;;;16.57;48.72
63439;BME280;49567;48.958;8.294;2023-05-24T03:52:24;100706.97;;;16.59;48.65
63439;BME280;49567;48.958;8.294;2023-05-24T03:54:49;100702.00;;;16.62;48.51
63439;BME280;49567;48.958;8.294;2023-05-24T03:57:14;100704.19;;;16.65;48.72
63439;BME280;49567;48.958;8.294;2023-05-24T03:59:40;100713.22;;;16.65;48.77
63439;BME280;49567;48.958;8.294;2023-05-24T04:02:05;100717.59;;;16.61;48.80
63439;BME280;49567;48.958;8.294;2023-05-24T04:04:31;100721.69;;;16.64;48.77
63439;BME280;49567;48.958;8.294;2023-05-24T04:06:56;100725.00;;;16.66;48.63
63439;BME280;49567;48.958;8.294;2023-05-24T04:09:22;100730.47;;;16.66;48.68
63439;BME280;49567;48.958;8.294;2023-05-24T04:11:47;100727.16;;;16.69;48.55
63439;BME280;49567;48.958;8.294;2023-05-24T04:14:13;100725.28;;;16.59;48.64
63439;BME280;49567;48.958;8.294;2023-05-24T04:16:38;100729.66;;;16.55;48.86
63439;BME280;49567;48.958;8.294;2023-05-24T04:19:05;100727.47;;;16.57;48.65
63439;BME280;49567;48.958;8.294;2023-05-24T04:21:31;100729.13;;;16.58;48.80
63439;BME280;49567;48.958;8.294;2023-05-24T04:23:57;100728.84;;;16.59;48.90
63439;BME280;49567;48.958;8.294;2023-05-24T04:26:25;100731.31;;;16.56;48.95
63439;BME280;49567;48.958;8.294;2023-05-24T04:28:51;100731.84;;;16.53;48.61
63439;BME280;49567;48.958;8.294;2023-05-24T04:31:16;100725.84;;;16.56;48.58
63439;BME280;49567;48.958;8.294;2023-05-24T04:33:42;100734.84;;;16.51;49.03
63439;BME280;49567;48.958;8.294;2023-05-24T04:36:07;100734.84;;;16.51;49.20
63439;BME280;49567;48.958;8.294;2023-05-24T04:38:35;100737.31;;;16.48;49.00
63439;BME280;49567;48.958;8.294;2023-05-24T04:41:03;100737.56;;;16.51;48.93
63439;BME280;49567;48.958;8.294;2023-05-24T04:43:31;100736.22;;;16.49;48.90
63439;BME280;49567;48.958;8.294;2023-05-24T04:45:57;100743.34;;;16.45;49.10
63439;BME280;49567;48.958;8.294;2023-05-24T04:48:25;100740.34;;;16.46;49.05
63439;BME280;49567;48.958;8.294;2023-05-24T04:50:51;100745.25;;;16.44;48.93
63439;BME280;49567;48.958;8.294;2023-05-24T04:53:17;100743.88;;;16.42;48.78
63439;BME280;49567;48.958;8.294;2023-05-24T04:55:42;100743.88;;;16.47;48.83
63439;BME280;49567;48.958;8.294;2023-05-24T04:58:08;100742.25;;;16.46;48.74
63439;BME280;49567;48.958;8.294;2023-05-24T05:00:33;100751.56;;;16.40;49.02
63439;BME280;49567;48.958;8.294;2023-05-24T05:02:58;100747.16;;;16.44;48.82
63439;BME280;49567;48.958;8.294;2023-05-24T05:05:23;100749.91;;;16.44;48.83
63439;BME280;49567;48.958;8.294;2023-05-24T05:07:49;100750.75;;;16.39;49.22
63439;BME280;49567;48.958;8.294;2023-05-24T05:10:14;100751.81;;;16.43;49.11
63439;BME280;49567;48.958;8.294;2023-05-24T05:12:39;100755.94;;;16.46;49.16
63439;BME280;49567;48.958;8.294;2023-05-24T05:15:05;100763.31;;;16.45;49.17
63439;BME280;49567;48.958;8.294;2023-05-24T05:17:31;100761.13;;;16.42;49.61
63439;BME280;49567;48.958;8.294;2023-05-24T05:19:56;100753.19;;;16.41;49.73
63439;BME280;49567;48.958;8.294;2023-05-24T05:22:22;100761.69;;;16.39;49.59
63439;BME280;49567;48.958;8.294;2023-05-24T05:24:47;100762.78;;;16.33;49.68
63439;BME280;49567;48.958;8.294;2023-05-24T05:27:12;100759.22;;;16.38;49.68
63439;BME280;49567;48.958;8.294;2023-05-24T05:29:37;100756.22;;;16.39;49.76
63439;BME280;49567;48.958;8.294;2023-05-24T05:32:03;100761.13;;;16.42;49.69
63439;BME280;49567;48.958;8.294;2023-05-24T05:34:28;100760.28;;;16.47;49.55
63439;BME280;49567;48.958;8.294;2023-05-24T05:36:53;100753.72;;;16.48;49.50
63439;BME280;49567;48.958;8.294;2023-05-24T05:39:19;100750.47;;;16.46;49.60
63439;BME280;49567;48.958;8.294;2023-05-24T05:41:44;100751.81;;;16.48;49.53
63439;BME280;49567;48.958;8.294;2023-05-24T05:44:10;100748.81;;;16.45;49.28
63439;BME280;49567;48.958;8.294;2023-05-24T05:46:37;100749.34;;;16.37;49.39
63439;BME280;49567;48.958;8.294;2023-05-24T05:49:03;100747.19;;;16.39;49.49
63439;BME280;49567;48.958;8.294;2023-05-24T05:51:31;100754.84;;;16.42;49.60
63439;BME280;49567;48.958;8.294;2023-05-24T05:53:56;100745.25;;;16.44;49.74
63439;BME280;49567;48.958;8.294;2023-05-24T05:56:22;100747.72;;;16.41;49.56
63439;BME280;49567;48.958;8.294;2023-05-24T05:58:47;100743.34;;;16.40;49.78
63439;BME280;49567;48.958;8.294;2023-05-24T06:01:14;100748.81;;;16.45;49.95
63439;BME280;49567;48.958;8.294;2023-05-24T06:03:39;100765.75;;;16.47;49.66
63439;BME280;49567;48.958;8.294;2023-05-24T06:06:05;100751.00;;;16.38;49.65
63439;BME280;49567;48.958;8.294;2023-05-24T06:08:30;100758.66;;;16.46;49.71
63439;BME280;49567;48.958;8.294;2023-05-24T06:10:59;100755.06;;;16.50;49.84
63439;BME280;49567;48.958;8.294;2023-05-24T06:13:27;100757.84;;;16.55;49.98
63439;BME280;49567;48.958;8.294;2023-05-24T06:15:53;100758.09;;;16.54;50.13
63439;BME280;49567;48.958;8.294;2023-05-24T06:18:19;100760.03;;;16.58;50.32
63439;BME280;49567;48.958;8.294;2023-05-24T06:20:45;100763.03;;;16.62;50.13
63439;BME280;49567;48.958;8.294;2023-05-24T06:23:10;100765.75;;;16.52;50.26
63439;BME280;49567;48.958;8.294;2023-05-24T06:25:36;100761.38;;;16.41;50.17
63439;BME280;49567;48.958;8.294;2023-05-24T06:28:03;100771.78;;;16.34;50.48
63439;BME280;49567;48.958;8.294;2023-05-24T06:30:28;100770.44;;;16.26;50.46
63439;BME280;49567;48.958;8.294;2023-05-24T06:32:53;100784.13;;;16.36;50.47
63439;BME280;49567;48.958;8.294;2023-05-24T06:35:19;100782.19;;;16.37;50.26
63439;BME280;49567;48.958;8.294;2023-05-24T06:37:44;100783.28;;;16.36;50.31
63439;BME280;49567;48.958;8.294;2023-05-24T06:40:10;100787.66;;;16.42;49.78
63439;BME280;49567;48.958;8.294;2023-05-24T06:42:35;100794.22;;;16.36;49.82
63439;BME280;49567;48.958;8.294;2023-05-24T06:45:01;100795.34;;;16.40;49.50
63439;BME280;49567;48.958;8.294;2023-05-24T06:47:27;100797.50;;;16.48;49.73
63439;BME280;49567;48.958;8.294;2023-05-24T06:49:52;100793.66;;;16.49;49.53
63439;BME280;49567;48.958;8.294;2023-05-24T06:52:19;100796.16;;;16.55;49.91
63439;BME280;49567;48.958;8.294;2023-05-24T06:54:44;100795.28;;;16.50;49.80
63439;BME280;49567;48.958;8.294;2023-05-24T06:57:10;100801.63;;;16.55;49.86
63439;BME280;49567;48.958;8.294;2023-05-24T06:59:35;100796.41;;;16.64;49.81
63439;BME280;49567;48.958;8.294;2023-05-24T07:02:00;100801.59;;;16.71;49.36
63439;BME280;49567;48.958;8.294;2023-05-24T07:04:26;100812.53;;;16.76;49.13
63439;BME280;49567;48.958;8.294;2023-05-24T07:06:52;100806.78;;;16.77;48.68
63439;BME280;49567;48.958;8.294;2023-05-24T07:09:18;100816.63;;;16.78;48.52
63439;BME280;49567;48.958;8.294;2023-05-24T07:11:43;100808.13;;;16.80;48.51
63439;BME280;49567;48.958;8.294;2023-05-24T07:14:09;100811.97;;;16.84;48.31
63439;BME280;49567;48.958;8.294;2023-05-24T07:16:34;100816.59;;;16.83;48.57
63439;BME280;49567;48.958;8.294;2023-05-24T07:18:59;100833.31;;;16.92;48.34
63439;BME280;49567;48.958;8.294;2023-05-24T07:21:25;100823.44;;;16.91;47.90
63439;BME280;49567;48.958;8.294;2023-05-24T07:23:50;100822.09;;;16.83;48.05
63439;BME280;49567;48.958;8.294;2023-05-24T07:26:16;100831.91;;;16.89;48.06
63439;BME280;49567;48.958;8.294;2023-05-24T07:28:41;100833.28;;;16.87;47.75
63439;BME280;49567;48.958;8.294;2023-05-24T07:31:08;100833.88;;;16.89;47.85
63439;BME280;49567;48.958;8.294;2023-05-24T07:33:35;100834.91;;;16.93;47.82
63439;BME280;49567;48.958;8.294;2023-05-24T07:36:01;100833.00;;;16.93;47.60
63439;BME280;49567;48.958;8.294;2023-05-24T07:38:27;100839.34;;;16.89;47.66
63439;BME280;49567;48.958;8.294;2023-05-24T07:40:53;100833.31;;;16.92;47.60
63439;BME280;49567;48.958;8.294;2023-05-24T07:43:18;100839.59;;;16.87;47.63
63439;BME280;49567;48.958;8.294;2023-05-24T07:45:44;100836.88;;;16.92;47.38
63439;BME280;49567;48.958;8.294;2023-05-24T07:48:10;100833.00;;;16.98;47.51
63439;BME280;49567;48.958;8.294;2023-05-24T07:50:35;100832.16;;;17.08;47.57
63439;BME280;49567;48.958;8.294;2023-05-24T07:53:01;100843.91;;;17.13;47.51
63439;BME280;49567;48.958;8.294;2023-05-24T07:55:26;100848.00;;;17.21;46.94
63439;BME280;49567;48.958;8.294;2023-05-24T07:57:52;100850.19;;;17.24;46.83
63439;BME280;49567;48.958;8.294;2023-05-24T08:00:18;100845.22;;;17.26;47.05
63439;BME280;49567;48.958;8.294;2023-05-24T08:02:44;100844.69;;;17.24;46.45
63439;BME280;49567;48.958;8.294;2023-05-24T08:05:11;100843.59;;;17.25;45.46
63439;BME280;49567;48.958;8.294;2023-05-24T08:07:37;100838.63;;;17.32;45.41
63439;BME280;49567;48.958;8.294;2023-05-24T08:10:03;100849.31;;;17.34;45.13
63439;BME280;49567;48.958;8.294;2023-05-24T08:12:28;100852.84;;;17.44;45.30
63439;BME280;49567;48.958;8.294;2023-05-24T08:14:54;100842.91;;;17.58;45.46
63439;BME280;49567;48.958;8.294;2023-05-24T08:17:20;100836.03;;;17.71;45.20
63439;BME280;49567;48.958;8.294;2023-05-24T08:19:45;100831.59;;;17.75;45.10
63439;BME280;49567;48.958;8.294;2023-05-24T08:22:11;100845.34;;;17.65;44.73
63439;BME280;49567;48.958;8.294;2023-05-24T08:24:36;100845.34;;;17.65;44.49
63439;BME280;49567;48.958;8.294;2023-05-24T08:27:02;100847.00;;;17.71;44.12
63439;BME280;49567;48.958;8.294;2023-05-24T08:29:28;100848.88;;;17.76;43.78
63439;BME280;49567;48.958;8.294;2023-05-24T08:31:53;100852.22;;;17.68;43.60
63439;BME280;49567;48.958;8.294;2023-05-24T08:34:19;100852.22;;;17.62;42.78
63439;BME280;49567;48.958;8.294;2023-05-24T08:36:44;100856.34;;;17.60;43.46
63439;BME280;49567;48.958;8.294;2023-05-24T08:39:09;100849.22;;;17.54;43.34
63439;BME280;49567;48.958;8.294;2023-05-24T08:41:35;100850.63;;;17.56;43.66
63439;BME280;49567;48.958;8.294;2023-05-24T08:44:06;100845.66;;;17.53;43.84
63439;BME280;49567;48.958;8.294;2023-05-24T08:46:35;100841.44;;;17.81;43.40
63439;BME280;49567;48.958;8.294;2023-05-24T08:49:01;100849.00;;;17.99;43.15
63439;BME280;49567;48.958;8.294;2023-05-24T08:51:32;100848.00;;;18.24;43.01
63439;BME280;49567;48.958;8.294;2023-05-24T08:53:58;100848.56;;;18.60;42.68
63439;BME280;49567;48.958;8.294;2023-05-24T08:56:24;100849.31;;;18.94;41.78
63439;BME280;49567;48.958;8.294;2023-05-24T08:58:49;100841.91;;;19.18;41.30
63439;BME280;49567;48.958;8.294;2023-05-24T09:01:16;100847.19;;;19.10;40.86
63439;BME280;49567;48.958;8.294;2023-05-24T09:03:42;100846.44;;;19.04;40.52
63439;BME280;49567;48.958;8.294;2023-05-24T09:06:11;100845.28;;;18.87;40.80
63439;BME280;49567;48.958;8.294;2023-05-24T09:08:37;100842.19;;;18.93;40.49
63439;BME280;49567;48.958;8.294;2023-05-24T09:11:04;100839.97;;;18.95;40.27
63439;BME280;49567;48.958;8.294;2023-05-24T09:13:30;100845.97;;;18.97;40.34
63439;BME280;49567;48.958;8.294;2023-05-24T09:15:57;100841.03;;;18.99;40.09
63439;BME280;49567;48.958;8.294;2023-05-24T09:18:23;100846.56;;;18.94;40.67
63439;BME280;49567;48.958;8.294;2023-05-24T09:20:48;100840.53;;;18.92;40.75
63439;BME280;49567;48.958;8.294;2023-05-24T09:23:14;100837.84;;;18.87;40.91
63439;BME280;49567;48.958;8.294;2023-05-24T09:25:44;100845.66;;;18.75;40.89
63439;BME280;49567;48.958;8.294;2023-05-24T09:28:12;100849.81;;;18.73;41.44
63439;BME280;49567;48.958;8.294;2023-05-24T09:30:41;100849.41;;;18.84;41.18
63439;BME280;49567;48.958;8.294;2023-05-24T09:33:07;100855.91;;;19.17;40.86
63439;BME280;49567;48.958;8.294;2023-05-24T09:35:32;100858.50;;;19.32;40.14
63439;BME280;49567;48.958;8.294;2023-05-24T09:37:58;100847.06;;;19.49;39.63
63439;BME280;49567;48.958;8.294;2023-05-24T09:40:26;100849.59;;;19.83;38.74
63439;BME280;49567;48.958;8.294;2023-05-24T09:43:03;100850.81;;;20.14;38.47
63439;BME280;49567;48.958;8.294;2023-05-24T09:45:28;100857.91;;;20.52;37.21
63439;BME280;49567;48.958;8.294;2023-05-24T09:47:53;100848.63;;;21.08;36.32
63439;BME280;49567;48.958;8.294;2023-05-24T09:50:19;100843.75;;;21.59;35.71
63439;BME280;49567;48.958;8.294;2023-05-24T09:52:45;100831.75;;;21.91;35.00
63439;BME280;49567;48.958;8.294;2023-05-24T09:55:14;100847.22;;;22.37;34.31
63439;BME280;49567;48.958;8.294;2023-05-24T09:57:40;100835.06;;;22.91;31.89
63439;BME280;49567;48.958;8.294;2023-05-24T10:00:09;100836.28;;;23.55;31.90
63439;BME280;49567;48.958;8.294;2023-05-24T10:02:44;100834.25;;;24.12;31.18
63439;BME280;49567;48.958;8.294;2023-05-24T10:05:10;100826.94;;;24.33;30.63
63439;BME280;49567;48.958;8.294;2023-05-24T10:07:37;100833.41;;;24.37;30.23
63439;BME280;49567;48.958;8.294;2023-05-24T10:10:03;100825.88;;;24.72;30.03
63439;BME280;49567;48.958;8.294;2023-05-24T10:12:29;100824.03;;;25.31;29.42
63439;BME280;49567;48.958;8.294;2023-05-24T10:14:55;100828.09;;;25.34;29.36
63439;BME280;49567;48.958;8.294;2023-05-24T10:17:22;100837.91;;;25.31;29.16
63439;BME280;49567;48.958;8.294;2023-05-24T10:19:47;100828.09;;;25.34;29.49
63439;BME280;49567;48.958;8.294;2023-05-24T10:22:13;100825.75;;;25.44;28.95
63439;BME280;49567;48.958;8.294;2023-05-24T10:24:43;100829.81;;;25.47;28.80
63439;BME280;49567;48.958;8.294;2023-05-24T10:27:13;100824.75;;;25.49;28.39
63439;BME280;49567;48.958;8.294;2023-05-24T10:32:12;100817.91;;;25.96;27.92
63439;BME280;49567;48.958;8.294;2023-05-24T10:34:39;100817.16;;;26.08;27.85
63439;BME280;49567;48.958;8.294;2023-05-24T10:37:05;100809.19;;;26.39;27.82
63439;BME280;49567;48.958;8.294;2023-05-24T10:39:32;100810.00;;;26.72;26.89
63439;BME280;49567;48.958;8.294;2023-05-24T10:42:04;100799.84;;;27.01;26.41
63439;BME280;49567;48.958;8.294;2023-05-24T10:44:31;100801.97;;;27.16;25.98
63439;BME280;49567;48.958;8.294;2023-05-24T10:49:34;100804.81;;;28.20;24.99
63439;BME280;49567;48.958;8.294;2023-05-24T10:52:01;100793.13;;;28.58;24.89
63439;BME280;49567;48.958;8.294;2023-05-24T10:54:27;100795.88;;;29.01;24.02
63439;BME280;49567;48.958;8.294;2023-05-24T10:56:52;100787.50;;;29.32;23.76
63439;BME280;49567;48.958;8.294;2023-05-24T10:59:29;100791.91;;;29.68;23.46
63439;BME280;49567;48.958;8.294;2023-05-24T11:01:57;100787.72;;;29.78;22.71
63439;BME280;49567;48.958;8.294;2023-05-24T11:04:23;100788.78;;;30.27;22.05
63439;BME280;49567;48.958;8.294;2023-05-24T11:06:59;100788.31;;;30.86;21.53
63439;BME280;49567;48.958;8.294;2023-05-24T11:09:26;100795.47;;;31.56;20.58
63439;BME280;49567;48.958;8.294;2023-05-24T11:12:02;100787.88;;;32.16;19.90
63439;BME280;49567;48.958;8.294;2023-05-24T11:14:33;100785.72;;;32.35;18.89
63439;BME280;49567;48.958;8.294;2023-05-24T11:17:00;100787.41;;;32.44;18.33
63439;BME280;49567;48.958;8.294;2023-05-24T11:19:36;100783.75;;;32.76;18.41
63439;BME280;49567;48.958;8.294;2023-05-24T11:22:05;100779.00;;;32.84;18.11
63439;BME280;49567;48.958;8.294;2023-05-24T11:24:31;100772.47;;;33.17;17.55
63439;BME280;49567;48.958;8.294;2023-05-24T11:26:58;100778.22;;;33.34;17.95
63439;BME280;49567;48.958;8.294;2023-05-24T11:29:24;100776.03;;;33.65;17.72
63439;BME280;49567;48.958;8.294;2023-05-24T11:31:51;100785.13;;;33.48;17.69
63439;BME280;49567;48.958;8.294;2023-05-24T11:34:18;100780.75;;;33.54;17.41
63439;BME280;49567;48.958;8.294;2023-05-24T11:36:44;100784.75;;;33.53;17.34
63439;BME280;49567;48.958;8.294;2023-05-24T11:39:11;100789.81;;;33.26;17.65
63439;BME280;49567;48.958;8.294;2023-05-24T11:41:38;100783.78;;;33.27;17.51
63439;BME280;49567;48.958;8.294;2023-05-24T11:44:03;100771.47;;;33.43;17.46
63439;BME280;49567;48.958;8.294;2023-05-24T11:46:30;100781.94;;;33.53;17.14
63439;BME280;49567;48.958;8.294;2023-05-24T11:48:58;100771.22;;;33.65;17.77
63439;BME280;49567;48.958;8.294;2023-05-24T11:51:34;100775.66;;;33.73;17.33
63439;BME280;49567;48.958;8.294;2023-05-24T11:54:00;100777.63;;;33.62;17.26
63439;BME280;49567;48.958;8.294;2023-05-24T11:56:27;100764.56;;;33.33;17.61
63439;BME280;49567;48.958;8.294;2023-05-24T11:59:13;100765.56;;;32.60;17.86
63439;BME280;49567;48.958;8.294;2023-05-24T12:01:38;100764.63;;;32.15;18.14
63439;BME280;49567;48.958;8.294;2023-05-24T12:04:05;100774.22;;;32.11;18.64
63439;BME280;49567;48.958;8.294;2023-05-24T12:06:36;100766.28;;;31.86;18.92
63439;BME280;49567;48.958;8.294;2023-05-24T12:09:02;100764.44;;;31.42;19.56
63439;BME280;49567;48.958;8.294;2023-05-24T12:11:30;100754.34;;;31.11;19.59
63439;BME280;49567;48.958;8.294;2023-05-24T12:13:57;100761.94;;;30.42;20.20
63439;BME280;49567;48.958;8.294;2023-05-24T12:16:22;100750.34;;;30.02;20.75
63439;BME280;49567;48.958;8.294;2023-05-24T12:18:50;100760.19;;;29.96;21.57
63439;BME280;49567;48.958;8.294;2023-05-24T12:21:16;100753.66;;;29.88;21.65
63439;BME280;49567;48.958;8.294;2023-05-24T12:23:41;100761.25;;;29.72;21.34
63439;BME280;49567;48.958;8.294;2023-05-24T12:26:06;100751.16;;;29.48;21.55
63439;BME280;49567;48.958;8.294;2023-05-24T12:28:36;100745.72;;;29.20;21.97
63439;BME280;49567;48.958;8.294;2023-05-24T12:31:04;100743.41;;;28.91;22.33
63439;BME280;49567;48.958;8.294;2023-05-24T12:33:30;100743.84;;;28.93;22.43
63439;BME280;49567;48.958;8.294;2023-05-24T12:35:56;100738.50;;;29.35;22.34
63439;BME280;49567;48.958;8.294;2023-05-24T12:38:23;100742.53;;;29.38;22.00
63439;BME280;49567;48.958;8.294;2023-05-24T12:40:50;100742.00;;;29.32;22.51
63439;BME280;49567;48.958;8.294;2023-05-24T12:43:15;100746.19;;;29.07;22.43
63439;BME280;49567;48.958;8.294;2023-05-24T12:45:41;100743.09;;;29.12;22.64
63439;BME280;49567;48.958;8.294;2023-05-24T12:48:06;100742.75;;;29.13;22.55
63439;BME280;49567;48.958;8.294;2023-05-24T12:50:32;100724.03;;;29.14;22.80
63439;BME280;49567;48.958;8.294;2023-05-24T12:52:59;100725.50;;;29.08;23.05
63439;BME280;49567;48.958;8.294;2023-05-24T12:55:26;100716.94;;;29.01;23.28
63439;BME280;49567;48.958;8.294;2023-05-24T12:57:52;100715.66;;;28.98;23.09